createdAt,value
2018-11-10T00:00:17.108Z,96.30
2018-11-10T00:02:46.810Z,95.90
2018-11-10T00:05:16.108Z,95.90
2018-11-10T00:07:47.872Z,95.80
2018-11-10T00:10:17.718Z,96.00
2018-11-10T00:12:47.212Z,95.70
2018-11-10T00:15:16.419Z,95.50
2018-11-10T00:17:45.676Z,95.60
2018-11-10T00:20:14.755Z,95.50
2018-11-10T00:22:43.726Z,95.60
2018-11-10T00:25:13.823Z,95.50
2018-11-10T00:27:44.135Z,95.50
2018-11-10T00:30:15.351Z,95.20
2018-11-10T00:32:45.018Z,95.00
2018-11-10T00:35:14.367Z,96.00
2018-11-10T00:37:43.696Z,96.40
2018-11-10T00:40:14.340Z,97.50
2018-11-10T00:42:43.695Z,98.10
2018-11-10T00:45:12.776Z,98.70
2018-11-10T00:47:41.866Z,98.40
2018-11-10T00:50:11.014Z,98.60
2018-11-10T00:52:40.191Z,98.20
2018-11-10T00:55:09.596Z,97.50
2018-11-10T00:57:38.807Z,97.60
2018-11-10T01:00:09.560Z,98.30
2018-11-10T01:02:38.707Z,98.90
2018-11-10T01:05:08.103Z,98.60
2018-11-10T01:07:37.179Z,97.90
2018-11-10T01:10:07.353Z,97.80
2018-11-10T01:12:36.357Z,97.60
2018-11-10T01:15:06.420Z,97.60
2018-11-10T01:17:35.394Z,97.90
2018-11-10T01:20:04.595Z,97.80
2018-11-10T01:22:33.568Z,98.40
2018-11-10T01:25:02.629Z,99.00
2018-11-10T01:27:31.787Z,99.60
2018-11-10T01:30:00.867Z,99.90
2018-11-10T01:32:29.950Z,99.90
2018-11-10T01:34:59.048Z,99.90
2018-11-10T01:37:28.127Z,99.90
2018-11-10T01:39:57.548Z,99.90
2018-11-10T01:42:26.578Z,99.90
2018-11-10T01:44:55.536Z,99.90
2018-11-10T01:47:24.516Z,99.90
2018-11-10T01:49:53.635Z,99.90
2018-11-10T01:52:22.743Z,99.90
2018-11-10T01:54:51.695Z,99.90
2018-11-10T01:57:20.832Z,99.90
2018-11-10T01:59:49.913Z,99.90
2018-11-10T02:02:19.204Z,99.90
2018-11-10T02:04:48.312Z,99.90
2018-11-10T02:07:17.514Z,99.90
2018-11-10T02:09:46.699Z,99.90
2018-11-10T02:12:15.702Z,99.90
2018-11-10T02:14:44.739Z,99.90
2018-11-10T02:17:13.807Z,99.90
2018-11-10T02:19:42.943Z,99.90
2018-11-10T02:22:12.083Z,99.90
2018-11-10T02:24:41.347Z,99.90
2018-11-10T02:27:15.387Z,99.90
2018-11-10T02:29:44.623Z,99.90
2018-11-10T02:32:13.660Z,99.90
2018-11-10T02:34:42.685Z,99.90
2018-11-10T02:37:11.924Z,99.90
2018-11-10T02:39:40.965Z,99.90
2018-11-10T02:42:09.963Z,99.90
2018-11-10T02:44:39.128Z,99.90
2018-11-10T02:47:08.320Z,99.90
2018-11-10T02:49:37.430Z,99.90
2018-11-10T02:52:06.659Z,99.90
2018-11-10T02:54:35.714Z,99.90
2018-11-10T02:57:04.989Z,99.90
2018-11-10T02:59:34.180Z,99.90
2018-11-10T03:02:03.215Z,99.90
2018-11-10T03:04:32.341Z,99.90
2018-11-10T03:07:01.276Z,99.90
2018-11-10T03:09:30.342Z,99.90
2018-11-10T03:11:59.490Z,99.90
2018-11-10T03:14:28.588Z,99.90
2018-11-10T03:16:57.708Z,99.90
2018-11-10T03:19:26.768Z,99.90
2018-11-10T03:21:56.091Z,99.90
2018-11-10T03:24:25.264Z,99.90
2018-11-10T03:26:54.355Z,99.90
2018-11-10T03:29:23.404Z,99.90
2018-11-10T03:31:52.463Z,99.90
2018-11-10T03:34:21.547Z,99.90
2018-11-10T03:36:50.637Z,99.90
2018-11-10T03:39:19.755Z,99.90
2018-11-10T03:41:48.776Z,99.90
2018-11-10T03:44:17.913Z,99.90
2018-11-10T03:46:47.038Z,99.90
2018-11-10T03:49:16.205Z,99.90
2018-11-10T03:51:45.052Z,99.90
2018-11-10T03:54:14.133Z,99.90
2018-11-10T03:56:43.140Z,99.90
2018-11-10T03:59:12.212Z,99.90
2018-11-10T04:01:41.171Z,99.90
2018-11-10T04:04:10.396Z,99.90
2018-11-10T04:06:39.591Z,99.90
2018-11-10T04:09:08.804Z,99.90
2018-11-10T04:11:37.983Z,99.90
2018-11-10T04:14:07.094Z,99.90
2018-11-10T04:16:36.163Z,99.90
2018-11-10T04:19:05.471Z,99.90
2018-11-10T04:21:34.444Z,99.90
2018-11-10T04:24:03.743Z,99.90
2018-11-10T04:26:32.844Z,99.90
2018-11-10T04:29:01.926Z,99.90
2018-11-10T04:31:31.047Z,99.90
2018-11-10T04:34:00.021Z,99.90
2018-11-10T04:36:29.140Z,99.90
2018-11-10T04:38:58.193Z,99.90
2018-11-10T04:41:26.994Z,99.90
2018-11-10T04:43:56.012Z,99.90
2018-11-10T04:46:25.011Z,99.90
2018-11-10T04:48:54.091Z,99.90
2018-11-10T04:51:23.177Z,99.90
2018-11-10T04:53:52.273Z,99.90
2018-11-10T04:56:21.373Z,99.90
2018-11-10T04:58:50.459Z,99.90
2018-11-10T05:01:19.591Z,99.90
2018-11-10T05:03:48.764Z,99.90
2018-11-10T05:06:17.951Z,99.90
2018-11-10T05:08:47.071Z,99.90
2018-11-10T05:11:16.141Z,99.90
2018-11-10T05:13:45.131Z,99.90
2018-11-10T05:16:14.166Z,99.90
2018-11-10T05:18:43.241Z,99.90
2018-11-10T05:21:12.339Z,99.90
2018-11-10T05:23:41.469Z,99.90
2018-11-10T05:26:10.611Z,99.90
2018-11-10T05:28:39.587Z,99.90
2018-11-10T05:31:08.606Z,99.90
2018-11-10T05:33:37.598Z,99.90
2018-11-10T05:36:06.635Z,99.90
2018-11-10T05:38:35.769Z,99.90
2018-11-10T05:41:04.871Z,99.90
2018-11-10T05:43:33.965Z,99.90
2018-11-10T05:46:03.073Z,99.90
2018-11-10T05:48:32.248Z,99.90
2018-11-10T05:51:01.367Z,99.90
2018-11-10T05:53:30.451Z,99.90
2018-11-10T05:55:59.615Z,99.90
2018-11-10T05:58:28.758Z,99.90
2018-11-10T06:00:57.527Z,99.90
2018-11-10T06:03:26.608Z,99.90
2018-11-10T06:05:55.815Z,99.90
2018-11-10T06:08:24.795Z,99.90
2018-11-10T06:10:53.815Z,99.90
2018-11-10T06:13:22.787Z,99.90
2018-11-10T06:15:51.817Z,99.90
2018-11-10T06:18:20.920Z,99.90
2018-11-10T06:20:49.968Z,99.90
2018-11-10T06:23:19.221Z,99.90
2018-11-10T06:25:48.405Z,99.90
2018-11-10T06:28:18.081Z,99.90
2018-11-10T06:30:47.078Z,99.90
2018-11-10T06:33:16.045Z,99.90
2018-11-10T06:35:45.049Z,99.90
2018-11-10T06:38:14.151Z,99.90
2018-11-10T06:40:43.228Z,99.90
2018-11-10T06:43:12.055Z,99.90
2018-11-10T06:45:40.854Z,99.90
2018-11-10T06:48:09.791Z,99.90
2018-11-10T06:50:38.785Z,99.90
2018-11-10T06:53:07.941Z,99.90
2018-11-10T06:55:36.984Z,99.90
2018-11-10T06:58:06.215Z,99.90
2018-11-10T07:00:35.441Z,99.90
2018-11-10T07:03:04.609Z,99.90
2018-11-10T07:05:33.705Z,99.90
2018-11-10T07:08:02.819Z,99.90
2018-11-10T07:10:31.680Z,99.90
2018-11-10T07:13:00.801Z,99.90
2018-11-10T07:15:29.874Z,99.90
2018-11-10T07:17:58.983Z,99.90
2018-11-10T07:20:27.972Z,99.90
2018-11-10T07:22:57.013Z,99.90
2018-11-10T07:25:26.132Z,99.90
2018-11-10T07:27:54.939Z,99.90
2018-11-10T07:30:24.123Z,99.90
2018-11-10T07:32:53.073Z,99.90
2018-11-10T07:35:22.068Z,99.90
2018-11-10T07:37:51.220Z,99.90
2018-11-10T07:40:20.296Z,99.90
2018-11-10T07:42:49.102Z,99.90
2018-11-10T07:45:18.060Z,99.90
2018-11-10T07:47:47.112Z,99.90
2018-11-10T07:50:16.323Z,99.90
2018-11-10T07:52:45.412Z,99.90
2018-11-10T07:55:15.544Z,99.90
2018-11-10T07:57:44.548Z,99.90
2018-11-10T08:00:15.592Z,99.90
2018-11-10T08:02:44.502Z,99.90
2018-11-10T08:05:13.939Z,99.90
2018-11-10T08:07:43.639Z,99.90
2018-11-10T08:10:13.358Z,99.90
2018-11-10T08:12:42.123Z,99.90
2018-11-10T08:15:13.323Z,99.90
2018-11-10T08:17:42.586Z,99.90
2018-11-10T08:20:12.161Z,99.90
2018-11-10T08:22:41.208Z,99.90
2018-11-10T08:25:12.490Z,99.90
2018-11-10T08:27:41.521Z,99.90
2018-11-10T08:30:12.282Z,99.90
2018-11-10T08:32:41.783Z,99.90
2018-11-10T08:35:11.807Z,99.90
2018-11-10T08:37:40.921Z,99.90
2018-11-10T08:40:14.492Z,99.90
2018-11-10T08:42:43.645Z,99.90
2018-11-10T08:45:13.713Z,99.90
2018-11-10T08:47:43.391Z,99.90
2018-11-10T08:50:13.436Z,99.90
2018-11-10T08:52:42.942Z,99.90
2018-11-10T08:55:12.946Z,99.90
2018-11-10T08:57:42.402Z,99.90
2018-11-10T09:00:12.140Z,99.90
2018-11-10T09:02:41.182Z,99.90
2018-11-10T09:05:11.482Z,99.90
2018-11-10T09:07:40.588Z,99.90
2018-11-10T09:10:11.007Z,99.90
2018-11-10T09:12:40.120Z,99.90
2018-11-10T09:15:12.669Z,99.90
2018-11-10T09:17:41.968Z,99.90
2018-11-10T09:20:12.692Z,99.90
2018-11-10T09:22:42.006Z,99.90
2018-11-10T09:25:12.395Z,99.90
2018-11-10T09:27:41.185Z,99.90
2018-11-10T09:30:11.749Z,99.90
2018-11-10T09:32:41.195Z,99.90
2018-11-10T09:35:11.346Z,99.90
2018-11-10T09:37:40.166Z,99.90
2018-11-10T09:40:11.249Z,99.90
2018-11-10T09:42:40.230Z,99.90
2018-11-10T09:45:10.838Z,99.90
2018-11-10T09:47:39.844Z,99.90
2018-11-10T09:50:11.362Z,99.90
2018-11-10T09:52:40.436Z,99.90
2018-11-10T09:55:09.282Z,99.90
2018-11-10T09:57:38.479Z,99.90
2018-11-10T10:00:12.679Z,99.90
2018-11-10T10:02:41.803Z,99.90
2018-11-10T10:05:10.782Z,99.90
2018-11-10T10:07:40.891Z,99.90
2018-11-10T10:10:11.793Z,99.90
2018-11-10T10:12:41.005Z,99.90
2018-11-10T10:15:11.748Z,99.90
2018-11-10T10:17:41.465Z,99.90
2018-11-10T10:20:13.033Z,99.90
2018-11-10T10:22:42.473Z,99.90
2018-11-10T10:25:13.179Z,99.90
2018-11-10T10:27:42.534Z,99.90
2018-11-10T10:30:18.247Z,99.90
2018-11-10T10:32:48.173Z,99.90
2018-11-10T10:35:17.680Z,99.90
2018-11-10T10:37:47.412Z,99.90
2018-11-10T10:40:16.728Z,99.90
2018-11-10T10:42:46.262Z,99.90
2018-11-10T10:45:17.472Z,99.90
2018-11-10T10:47:46.491Z,99.90
2018-11-10T10:50:17.360Z,99.90
2018-11-10T10:52:46.486Z,99.90
2018-11-10T10:55:16.659Z,99.90
2018-11-10T10:57:46.555Z,99.90
2018-11-10T11:01:24.837Z,99.90
2018-11-10T11:03:59.255Z,99.90
2018-11-10T11:06:28.393Z,99.90
2018-11-10T11:08:57.525Z,99.90
2018-11-10T11:11:26.580Z,99.30
2018-11-10T11:13:55.661Z,98.90
2018-11-10T11:16:24.790Z,99.20
2018-11-10T11:18:53.875Z,98.50
2018-11-10T11:21:22.973Z,99.00
2018-11-10T11:23:52.087Z,96.30
2018-11-10T11:26:21.226Z,98.10
2018-11-10T11:28:50.350Z,95.40
2018-11-10T11:31:19.443Z,95.80
2018-11-10T11:33:48.655Z,96.20
2018-11-10T11:36:18.388Z,94.90
2018-11-10T11:38:47.455Z,94.00
2018-11-10T11:41:16.589Z,92.20
2018-11-10T11:43:45.632Z,92.10
2018-11-10T11:46:14.734Z,92.60
2018-11-10T11:48:43.835Z,91.60
2018-11-10T11:51:12.916Z,91.30
2018-11-10T11:53:42.100Z,91.20
2018-11-10T11:56:11.299Z,91.50
2018-11-10T11:58:40.491Z,90.20
2018-11-10T12:01:09.736Z,87.60
2018-11-10T12:03:39.001Z,88.60
2018-11-10T12:06:08.107Z,87.00
2018-11-10T12:08:37.244Z,85.80
2018-11-10T12:11:06.796Z,84.20
2018-11-10T12:13:35.947Z,83.70
2018-11-10T12:16:05.298Z,82.50
2018-11-10T12:18:34.449Z,81.50
2018-11-10T12:21:03.915Z,81.90
2018-11-10T12:23:33.064Z,82.30
2018-11-10T12:26:02.212Z,80.80
2018-11-10T12:28:31.387Z,79.10
2018-11-10T12:31:00.612Z,78.30
2018-11-10T12:33:29.788Z,77.10
2018-11-10T12:35:59.059Z,77.10
2018-11-10T12:38:28.213Z,76.80
2018-11-10T12:40:57.267Z,76.60
2018-11-10T12:43:26.377Z,75.40
2018-11-10T12:45:55.582Z,78.70
2018-11-10T12:48:24.725Z,77.00
2018-11-10T12:50:54.144Z,76.40
2018-11-10T12:53:23.213Z,75.10
2018-11-10T12:55:52.508Z,73.40
2018-11-10T12:58:21.960Z,74.30
2018-11-10T13:00:51.174Z,72.30
2018-11-10T13:03:20.409Z,69.10
2018-11-10T13:05:49.603Z,70.60
2018-11-10T13:08:18.810Z,69.40
2018-11-10T13:10:48.030Z,70.60
2018-11-10T13:13:17.719Z,71.40
2018-11-10T13:15:47.008Z,71.00
2018-11-10T13:18:16.041Z,71.30
2018-11-10T13:20:45.259Z,69.90
2018-11-10T13:23:14.336Z,70.60
2018-11-10T13:25:43.519Z,69.90
2018-11-10T13:28:12.737Z,69.30
2018-11-10T13:30:41.987Z,69.50
2018-11-10T13:33:11.108Z,67.80
2018-11-10T13:35:40.203Z,66.50
2018-11-10T13:38:09.394Z,68.90
2018-11-10T13:40:38.573Z,69.00
2018-11-10T13:43:07.983Z,67.90
2018-11-10T13:45:37.433Z,65.30
2018-11-10T13:48:06.523Z,61.70
2018-11-10T13:50:35.758Z,60.30
2018-11-10T13:53:05.464Z,62.80
2018-11-10T13:55:34.213Z,62.70
2018-11-10T13:58:03.310Z,64.00
2018-11-10T14:00:32.498Z,60.30
2018-11-10T14:03:01.628Z,59.60
2018-11-10T14:05:30.821Z,61.50
2018-11-10T14:07:59.889Z,57.90
2018-11-10T14:10:29.028Z,58.70
2018-11-10T14:12:58.080Z,59.40
2018-11-10T14:15:27.122Z,58.70
2018-11-10T14:17:56.232Z,58.20
2018-11-10T14:20:26.186Z,57.00
2018-11-10T14:22:55.291Z,57.20
2018-11-10T14:25:24.573Z,57.00
2018-11-10T14:27:53.716Z,59.80
2018-11-10T14:30:22.875Z,57.80
2018-11-10T14:32:52.052Z,59.10
2018-11-10T14:35:21.260Z,60.20
2018-11-10T14:37:50.323Z,62.30
2018-11-10T14:40:19.542Z,62.70
2018-11-10T14:42:48.558Z,58.10
2018-11-10T14:45:18.885Z,58.50
2018-11-10T14:47:47.867Z,57.50
2018-11-10T14:50:17.635Z,58.60
2018-11-10T14:52:47.095Z,60.60
2018-11-10T14:55:16.483Z,60.90
2018-11-10T14:57:45.686Z,56.60
2018-11-10T15:00:17.185Z,59.50
2018-11-10T15:02:46.236Z,59.50
2018-11-10T15:05:15.461Z,60.50
2018-11-10T15:07:44.880Z,62.00
2018-11-10T15:10:15.118Z,61.90
2018-11-10T15:12:44.793Z,62.90
2018-11-10T15:15:15.044Z,61.50
2018-11-10T15:17:44.515Z,60.20
2018-11-10T15:20:14.680Z,61.00
2018-11-10T15:22:43.664Z,60.90
2018-11-10T15:25:13.938Z,58.10
2018-11-10T15:27:43.099Z,62.10
2018-11-10T15:30:17.106Z,57.60
2018-11-10T15:32:46.795Z,58.00
2018-11-10T15:35:17.147Z,60.20
2018-11-10T15:37:47.472Z,59.90
2018-11-10T15:40:17.126Z,61.60
2018-11-10T15:42:46.345Z,61.00
2018-11-10T15:45:16.452Z,61.50
2018-11-10T15:47:45.719Z,61.60
2018-11-10T15:50:15.885Z,60.70
2018-11-10T15:52:45.057Z,59.80
2018-11-10T15:55:14.699Z,59.70
2018-11-10T15:57:43.843Z,62.50
2018-11-10T16:00:14.236Z,60.10
2018-11-10T16:02:43.396Z,57.90
2018-11-10T16:05:13.124Z,57.00
2018-11-10T16:07:42.222Z,57.00
2018-11-10T16:10:11.668Z,58.00
2018-11-10T16:12:40.757Z,58.20
2018-11-10T16:15:12.795Z,59.20
2018-11-10T16:17:42.338Z,58.20
2018-11-10T16:20:20.175Z,57.10
2018-11-10T16:22:50.472Z,58.00
2018-11-10T16:25:19.862Z,57.70
2018-11-10T16:27:49.195Z,59.50
2018-11-10T16:30:19.352Z,59.90
2018-11-10T16:32:49.001Z,61.20
2018-11-10T16:35:18.281Z,61.10
2018-11-10T16:37:47.355Z,60.00
2018-11-10T16:40:17.496Z,60.50
2018-11-10T16:42:47.275Z,61.80
2018-11-10T16:45:17.071Z,61.40
2018-11-10T16:47:46.125Z,60.70
2018-11-10T16:50:15.196Z,61.70
2018-11-10T16:52:44.892Z,61.60
2018-11-10T16:55:13.872Z,63.00
2018-11-10T16:57:42.992Z,62.30
2018-11-10T17:00:15.033Z,62.00
2018-11-10T17:02:44.240Z,62.40
2018-11-10T17:05:13.350Z,62.00
2018-11-10T17:07:42.211Z,63.50
2018-11-10T17:10:13.240Z,63.80
2018-11-10T17:12:42.656Z,65.50
2018-11-10T17:15:11.868Z,66.00
2018-11-10T17:17:40.852Z,65.70
2018-11-10T17:20:11.880Z,64.10
2018-11-10T17:22:41.192Z,63.90
2018-11-10T17:25:10.875Z,66.20
2018-11-10T17:27:40.418Z,65.90
2018-11-10T17:30:13.503Z,64.10
2018-11-10T17:32:42.775Z,65.70
2018-11-10T17:35:12.313Z,65.10
2018-11-10T17:37:41.416Z,65.30
2018-11-10T17:40:11.552Z,66.50
2018-11-10T17:42:40.370Z,66.00
2018-11-10T17:45:12.029Z,66.50
2018-11-10T17:47:41.627Z,66.10
2018-11-10T17:50:12.149Z,65.70
2018-11-10T17:52:41.589Z,65.80
2018-11-10T17:55:11.778Z,67.20
2018-11-10T17:57:41.487Z,67.20
2018-11-10T18:00:10.682Z,65.60
2018-11-10T18:02:39.725Z,65.50
2018-11-10T18:05:10.141Z,66.40
2018-11-10T18:07:38.975Z,66.90
2018-11-10T18:10:09.762Z,67.20
2018-11-10T18:12:38.883Z,67.80
2018-11-10T18:15:09.156Z,66.50
2018-11-10T18:17:38.605Z,67.50
2018-11-10T18:20:08.525Z,66.30
2018-11-10T18:22:37.614Z,67.30
2018-11-10T18:25:06.740Z,68.20
2018-11-10T18:27:35.901Z,68.60
2018-11-10T18:30:05.844Z,68.90
2018-11-10T18:32:34.976Z,66.20
2018-11-10T18:35:04.013Z,69.00
2018-11-10T18:37:33.126Z,69.40
2018-11-10T18:40:02.203Z,69.20
2018-11-10T18:42:31.202Z,69.30
2018-11-10T18:45:00.264Z,69.20
2018-11-10T18:47:29.120Z,69.20
2018-11-10T18:49:58.010Z,69.10
2018-11-10T18:52:27.216Z,70.60
2018-11-10T18:54:56.463Z,70.30
2018-11-10T18:57:26.125Z,70.70
2018-11-10T18:59:55.984Z,70.60
2018-11-10T19:02:25.651Z,70.50
2018-11-10T19:04:55.325Z,70.60
2018-11-10T19:07:24.778Z,70.70
2018-11-10T19:09:53.944Z,70.50
2018-11-10T19:12:23.414Z,70.80
2018-11-10T19:14:52.528Z,71.10
2018-11-10T19:17:22.769Z,71.50
2018-11-10T19:19:52.517Z,71.30
2018-11-10T19:22:22.274Z,71.00
2018-11-10T19:24:51.859Z,72.00
2018-11-10T19:27:21.310Z,71.20
2018-11-10T19:29:50.548Z,71.40
2018-11-10T19:32:20.301Z,71.60
2018-11-10T19:34:50.083Z,71.10
2018-11-10T19:37:19.477Z,71.40
2018-11-10T19:39:49.203Z,71.40
2018-11-10T19:42:17.998Z,71.30
2018-11-10T19:44:47.230Z,71.60
2018-11-10T19:47:16.666Z,71.50
2018-11-10T19:49:46.195Z,72.70
2018-11-10T19:52:15.831Z,72.60
2018-11-10T19:54:44.985Z,72.50
2018-11-10T19:57:14.166Z,72.20
2018-11-10T19:59:43.635Z,72.60
2018-11-10T20:02:13.373Z,72.60
2018-11-10T20:04:43.253Z,72.70
2018-11-10T20:07:12.598Z,72.50
2018-11-10T20:09:41.976Z,72.70
2018-11-10T20:12:11.167Z,73.10
2018-11-10T20:14:40.388Z,73.50
2018-11-10T20:17:09.663Z,73.40
2018-11-10T20:19:39.067Z,74.50
2018-11-10T20:22:08.067Z,74.70
2018-11-10T20:24:37.352Z,75.00
2018-11-10T20:27:06.694Z,75.50
2018-11-10T20:29:36.557Z,76.10
2018-11-10T20:32:06.088Z,76.70
2018-11-10T20:34:35.471Z,77.10
2018-11-10T20:37:05.001Z,77.10
2018-11-10T20:39:34.488Z,76.90
2018-11-10T20:42:03.667Z,77.30
2018-11-10T20:44:33.196Z,77.90
2018-11-10T20:47:03.131Z,77.60
2018-11-10T20:49:32.186Z,77.40
2018-11-10T20:52:01.425Z,77.50
2018-11-10T20:54:30.844Z,76.80
2018-11-10T20:57:00.305Z,76.90
2018-11-10T20:59:29.665Z,77.60
2018-11-10T21:01:59.254Z,78.40
2018-11-10T21:04:28.228Z,78.70
2018-11-10T21:06:57.839Z,78.40
2018-11-10T21:09:26.928Z,78.30
2018-11-10T21:11:56.121Z,78.30
2018-11-10T21:14:25.418Z,78.00
2018-11-10T21:16:55.111Z,78.30
2018-11-10T21:19:24.308Z,78.40
2018-11-10T21:21:53.711Z,78.90
2018-11-10T21:24:23.117Z,79.60
2018-11-10T21:26:52.243Z,80.00
2018-11-10T21:29:21.206Z,80.40
2018-11-10T21:31:50.295Z,81.30
2018-11-10T21:34:19.635Z,81.60
2018-11-10T21:36:48.928Z,82.70
2018-11-10T21:39:18.168Z,82.70
2018-11-10T21:41:47.503Z,82.40
2018-11-10T21:44:16.695Z,83.60
2018-11-10T21:46:46.150Z,83.40
2018-11-10T21:49:15.490Z,83.20
2018-11-10T21:51:44.506Z,83.10
2018-11-10T21:54:13.712Z,82.70
2018-11-10T21:56:42.517Z,82.10
2018-11-10T21:59:11.285Z,81.80
2018-11-10T22:01:40.245Z,80.90
2018-11-10T22:04:09.277Z,81.80
2018-11-10T22:06:38.391Z,81.20
2018-11-10T22:09:10.078Z,81.30
2018-11-10T22:11:39.450Z,81.10
2018-11-10T22:14:08.484Z,81.70
2018-11-10T22:16:37.280Z,82.20
2018-11-10T22:19:06.145Z,81.50
2018-11-10T22:21:35.504Z,81.40
2018-11-10T22:24:04.672Z,81.30
2018-11-10T22:26:33.626Z,82.10
2018-11-10T22:29:02.767Z,81.30
2018-11-10T22:31:31.813Z,81.50
2018-11-10T22:34:00.985Z,81.50
2018-11-10T22:36:30.045Z,81.10
2018-11-10T22:38:59.124Z,80.50
2018-11-10T22:41:28.217Z,80.80
2018-11-10T22:43:57.325Z,80.70
2018-11-10T22:46:26.542Z,81.00
2018-11-10T22:48:55.624Z,80.90
2018-11-10T22:51:24.630Z,81.30
2018-11-10T22:53:53.588Z,80.80
2018-11-10T22:56:22.575Z,81.10
2018-11-10T22:58:51.584Z,81.00
2018-11-10T23:01:20.755Z,80.90
2018-11-10T23:03:49.836Z,81.00
2018-11-10T23:06:18.779Z,81.50
2018-11-10T23:08:47.551Z,81.70
2018-11-10T23:11:16.676Z,81.30
2018-11-10T23:13:45.757Z,81.30
2018-11-10T23:16:14.888Z,80.80
2018-11-10T23:18:44.037Z,81.60
2018-11-10T23:21:13.141Z,81.50
2018-11-10T23:23:42.322Z,81.50
2018-11-10T23:26:11.428Z,81.50
2018-11-10T23:28:40.596Z,81.40
2018-11-10T23:31:09.636Z,81.20
2018-11-10T23:33:38.727Z,81.20
2018-11-10T23:36:07.736Z,81.90
2018-11-10T23:38:36.816Z,82.40
2018-11-10T23:41:06.203Z,82.70
2018-11-10T23:43:35.191Z,82.20
2018-11-10T23:46:04.166Z,83.10
2018-11-10T23:48:33.216Z,84.30
2018-11-10T23:51:02.171Z,83.10
2018-11-10T23:53:31.371Z,83.30
2018-11-10T23:56:00.364Z,83.40
2018-11-10T23:58:29.448Z,83.10
